Gran Canaria > ESTACION METEOROLÓGICA Maspalomas

DATOS ACTUALES Online

Ultima actulizacion 25 minutos

19.4 ºC

Temperatura

54

Humedad (%)

Presión (mb)

0

Precipitación (mm)

7.8 O

Viento (Km/h)

DATOS DIARIOS

Temperatura últimas 24 horas (ºC)

Humedad últimas 24 horas (%)

Presión atmosférica últimas 24 horas (mb)

Precipitaciones últimas 23 horas (mm)

Viento últimas 24 horas (Km/h)

Hora Temperatura (°C) ºC Precipitación (mm) mm Presión (mb) mb Humedad (%) % Viento (Km/h) km/h
19 - 11:00 16.7 3.2 0 78 7.3 O
19 - 12:00 17.2 3.2 0 76 6 O
19 - 13:00 17.9 3.2 0 74 5.8 NO
19 - 14:00 17.9 3.2 0 73 6.5 O
19 - 15:00 18.1 3.2 0 75 7 O
19 - 16:00 18.4 3.2 0 73 6.4 NO
19 - 17:00 18.3 3.2 0 73 6.2 O
19 - 18:00 18 3.2 0 74 6.1 O
19 - 19:00 17.6 3.2 0 75 6 NO
19 - 20:00 17.2 3.2 0 76 5.4 NO
19 - 21:00 17 3.2 0 78 3.6 NO
19 - 22:00 17.3 3.2 0 76 4.6 NO
19 - 23:00 18.2 3.2 0 65 4.7 NO
20 - 00:00 18.9 3.2 0 61 5.3 NO
20 - 01:00 18.9 0 0 61 4.6 NO
20 - 02:00 18.6 0 0 63 4.1 NO
20 - 03:00 18.5 0 0 65 3.6 NO
20 - 04:00 18.4 0 0 64 3.4 NO
20 - 05:00 18.6 0 0 57 3.5 NO
20 - 06:00 18.5 0 0 56 3.4 NO
20 - 07:00 18.2 0 0 61 3.9 NO
20 - 08:00 17.9 0 0 61 4.1 NO
20 - 09:00 18.1 0 0 60 4 NO
20 - 10:00 18.7 0 0 62 6.9 NO
20 - 11:00 19.4 0 0 54 7.8 O
Apalmet utiliza cookies propias y de terceros para mejorar la usabilidad y la experiencia web. Política de cookies.